sensor_id;sensor_type;location;lat;lon;timestamp;P1;durP1;ratioP1;P2;durP2;ratioP2
84616;SDS011;74846;51.126;16.944;2024-03-23T00:53:46;11.60;;;7.50;;
84616;SDS011;74846;51.126;16.944;2024-03-23T00:56:14;12.30;;;8.20;;
84616;SDS011;74846;51.126;16.944;2024-03-23T00:58:41;13.50;;;9.10;;
84616;SDS011;74846;51.126;16.944;2024-03-23T01:01:09;18.70;;;9.80;;
84616;SDS011;74846;51.126;16.944;2024-03-23T01:03:37;11.90;;;8.50;;
84616;SDS011;74846;51.126;16.944;2024-03-23T01:06:05;13.20;;;8.50;;
84616;SDS011;74846;51.126;16.944;2024-03-23T01:08:33;13.80;;;8.40;;
84616;SDS011;74846;51.126;16.944;2024-03-23T01:11:24;14.10;;;8.20;;
84616;SDS011;74846;51.126;16.944;2024-03-23T01:13:56;13.10;;;7.70;;
84616;SDS011;74846;51.126;16.944;2024-03-23T01:16:24;13.70;;;7.90;;
84616;SDS011;74846;51.126;16.944;2024-03-23T01:18:51;15.60;;;7.60;;
84616;SDS011;74846;51.126;16.944;2024-03-23T01:21:19;14.30;;;7.70;;
84616;SDS011;74846;51.126;16.944;2024-03-23T01:23:47;13.80;;;8.30;;
84616;SDS011;74846;51.126;16.944;2024-03-23T01:26:15;16.30;;;8.60;;
84616;SDS011;74846;51.126;16.944;2024-03-23T01:28:42;11.50;;;7.50;;
84616;SDS011;74846;51.126;16.944;2024-03-23T01:31:10;15.80;;;9.10;;
84616;SDS011;74846;51.126;16.944;2024-03-23T01:33:38;10.80;;;6.70;;
84616;SDS011;74846;51.126;16.944;2024-03-23T01:36:06;13.30;;;7.80;;
84616;SDS011;74846;51.126;16.944;2024-03-23T01:38:34;12.60;;;7.70;;
84616;SDS011;74846;51.126;16.944;2024-03-23T01:41:01;11.30;;;7.20;;
84616;SDS011;74846;51.126;16.944;2024-03-23T01:43:29;11.90;;;7.60;;
84616;SDS011;74846;51.126;16.944;2024-03-23T01:45:58;12.90;;;7.40;;
84616;SDS011;74846;51.126;16.944;2024-03-23T01:48:26;12.70;;;8.40;;
84616;SDS011;74846;51.126;16.944;2024-03-23T01:50:54;8.90;;;6.50;;
84616;SDS011;74846;51.126;16.944;2024-03-23T01:53:22;12.00;;;7.20;;
84616;SDS011;74846;51.126;16.944;2024-03-23T01:55:50;11.10;;;6.80;;
84616;SDS011;74846;51.126;16.944;2024-03-23T01:58:18;10.80;;;6.50;;
84616;SDS011;74846;51.126;16.944;2024-03-23T02:00:46;14.10;;;7.70;;
84616;SDS011;74846;51.126;16.944;2024-03-23T02:05:52;9.00;;;5.20;;
84616;SDS011;74846;51.126;16.944;2024-03-23T02:08:21;12.70;;;7.80;;
84616;SDS011;74846;51.126;16.944;2024-03-23T02:10:50;11.70;;;7.30;;
84616;SDS011;74846;51.126;16.944;2024-03-23T02:13:18;10.00;;;6.30;;
84616;SDS011;74846;51.126;16.944;2024-03-23T02:15:46;10.10;;;6.40;;
84616;SDS011;74846;51.126;16.944;2024-03-23T02:18:15;10.80;;;7.20;;
84616;SDS011;74846;51.126;16.944;2024-03-23T02:20:43;10.00;;;6.30;;
84616;SDS011;74846;51.126;16.944;2024-03-23T02:23:13;9.80;;;6.60;;
84616;SDS011;74846;51.126;16.944;2024-03-23T02:25:42;8.90;;;6.10;;
84616;SDS011;74846;51.126;16.944;2024-03-23T02:28:09;7.40;;;4.90;;
84616;SDS011;74846;51.126;16.944;2024-03-23T02:30:38;10.20;;;6.20;;
84616;SDS011;74846;51.126;16.944;2024-03-23T02:33:06;12.20;;;6.80;;
84616;SDS011;74846;51.126;16.944;2024-03-23T02:35:34;10.70;;;6.60;;
84616;SDS011;74846;51.126;16.944;2024-03-23T02:38:01;10.80;;;6.60;;
84616;SDS011;74846;51.126;16.944;2024-03-23T02:40:29;13.10;;;7.60;;
84616;SDS011;74846;51.126;16.944;2024-03-23T02:42:57;12.40;;;7.10;;
84616;SDS011;74846;51.126;16.944;2024-03-23T02:45:25;10.20;;;6.80;;
84616;SDS011;74846;51.126;16.944;2024-03-23T02:47:52;13.30;;;8.00;;
84616;SDS011;74846;51.126;16.944;2024-03-23T02:50:21;11.40;;;7.00;;
84616;SDS011;74846;51.126;16.944;2024-03-23T02:52:48;10.60;;;6.90;;
84616;SDS011;74846;51.126;16.944;2024-03-23T02:55:16;11.50;;;7.30;;
84616;SDS011;74846;51.126;16.944;2024-03-23T02:57:44;11.60;;;7.40;;
84616;SDS011;74846;51.126;16.944;2024-03-23T03:00:12;10.70;;;7.10;;
84616;SDS011;74846;51.126;16.944;2024-03-23T03:02:40;11.00;;;6.50;;
84616;SDS011;74846;51.126;16.944;2024-03-23T03:05:08;10.90;;;6.60;;
84616;SDS011;74846;51.126;16.944;2024-03-23T03:07:36;12.10;;;7.90;;
84616;SDS011;74846;51.126;16.944;2024-03-23T03:10:06;11.00;;;7.70;;
84616;SDS011;74846;51.126;16.944;2024-03-23T03:12:35;10.90;;;7.00;;
84616;SDS011;74846;51.126;16.944;2024-03-23T03:15:04;10.00;;;7.10;;
84616;SDS011;74846;51.126;16.944;2024-03-23T03:17:32;12.00;;;8.60;;
84616;SDS011;74846;51.126;16.944;2024-03-23T03:19:59;9.80;;;6.70;;
84616;SDS011;74846;51.126;16.944;2024-03-23T03:22:27;12.60;;;8.40;;
84616;SDS011;74846;51.126;16.944;2024-03-23T03:24:55;12.40;;;7.80;;
84616;SDS011;74846;51.126;16.944;2024-03-23T03:27:22;12.50;;;7.80;;
84616;SDS011;74846;51.126;16.944;2024-03-23T03:29:50;13.70;;;9.10;;
84616;SDS011;74846;51.126;16.944;2024-03-23T03:32:18;11.20;;;7.10;;
84616;SDS011;74846;51.126;16.944;2024-03-23T03:34:45;11.20;;;7.40;;
84616;SDS011;74846;51.126;16.944;2024-03-23T03:37:13;10.90;;;6.90;;
84616;SDS011;74846;51.126;16.944;2024-03-23T03:39:40;11.80;;;7.90;;
84616;SDS011;74846;51.126;16.944;2024-03-23T03:42:08;11.60;;;8.20;;
84616;SDS011;74846;51.126;16.944;2024-03-23T03:44:35;10.90;;;6.60;;
84616;SDS011;74846;51.126;16.944;2024-03-23T03:47:04;11.20;;;7.40;;
84616;SDS011;74846;51.126;16.944;2024-03-23T03:49:32;10.60;;;7.30;;
84616;SDS011;74846;51.126;16.944;2024-03-23T03:52:00;10.90;;;7.70;;
84616;SDS011;74846;51.126;16.944;2024-03-23T03:54:29;12.90;;;9.40;;
84616;SDS011;74846;51.126;16.944;2024-03-23T03:56:56;13.40;;;8.20;;
84616;SDS011;74846;51.126;16.944;2024-03-23T03:59:24;14.60;;;8.70;;
84616;SDS011;74846;51.126;16.944;2024-03-23T04:01:52;12.40;;;8.10;;
84616;SDS011;74846;51.126;16.944;2024-03-23T04:04:20;9.00;;;6.40;;
84616;SDS011;74846;51.126;16.944;2024-03-23T04:06:48;12.20;;;7.00;;
84616;SDS011;74846;51.126;16.944;2024-03-23T04:09:15;11.50;;;7.70;;
84616;SDS011;74846;51.126;16.944;2024-03-23T04:11:43;12.40;;;7.80;;
84616;SDS011;74846;51.126;16.944;2024-03-23T04:14:11;12.50;;;8.00;;
84616;SDS011;74846;51.126;16.944;2024-03-23T04:16:39;11.80;;;6.60;;
84616;SDS011;74846;51.126;16.944;2024-03-23T04:19:06;9.90;;;7.00;;
84616;SDS011;74846;51.126;16.944;2024-03-23T04:21:35;9.60;;;6.90;;
84616;SDS011;74846;51.126;16.944;2024-03-23T04:24:04;12.40;;;7.50;;
84616;SDS011;74846;51.126;16.944;2024-03-23T04:26:43;13.10;;;8.00;;
84616;SDS011;74846;51.126;16.944;2024-03-23T04:29:10;12.20;;;7.20;;
84616;SDS011;74846;51.126;16.944;2024-03-23T04:31:39;12.30;;;8.40;;
84616;SDS011;74846;51.126;16.944;2024-03-23T04:34:07;10.10;;;8.10;;
84616;SDS011;74846;51.126;16.944;2024-03-23T04:36:35;15.30;;;8.00;;
84616;SDS011;74846;51.126;16.944;2024-03-23T04:39:02;8.50;;;6.00;;
84616;SDS011;74846;51.126;16.944;2024-03-23T04:41:30;10.90;;;6.50;;
84616;SDS011;74846;51.126;16.944;2024-03-23T04:43:58;16.00;;;6.50;;
84616;SDS011;74846;51.126;16.944;2024-03-23T04:46:26;8.40;;;5.70;;
84616;SDS011;74846;51.126;16.944;2024-03-23T04:48:54;12.80;;;7.20;;
84616;SDS011;74846;51.126;16.944;2024-03-23T04:51:23;12.90;;;7.60;;
84616;SDS011;74846;51.126;16.944;2024-03-23T04:53:51;10.40;;;7.20;;
84616;SDS011;74846;51.126;16.944;2024-03-23T04:56:19;8.40;;;6.10;;
84616;SDS011;74846;51.126;16.944;2024-03-23T04:58:47;12.10;;;7.20;;
84616;SDS011;74846;51.126;16.944;2024-03-23T05:01:14;12.60;;;7.90;;
84616;SDS011;74846;51.126;16.944;2024-03-23T05:03:44;10.70;;;7.50;;
84616;SDS011;74846;51.126;16.944;2024-03-23T05:06:12;10.00;;;7.60;;
84616;SDS011;74846;51.126;16.944;2024-03-23T05:08:40;10.20;;;6.90;;
84616;SDS011;74846;51.126;16.944;2024-03-23T05:11:07;11.10;;;6.80;;
84616;SDS011;74846;51.126;16.944;2024-03-23T05:13:38;10.80;;;7.60;;
84616;SDS011;74846;51.126;16.944;2024-03-23T05:16:05;11.50;;;7.50;;
84616;SDS011;74846;51.126;16.944;2024-03-23T05:18:33;13.20;;;8.90;;
84616;SDS011;74846;51.126;16.944;2024-03-23T05:21:02;12.50;;;8.10;;
84616;SDS011;74846;51.126;16.944;2024-03-23T05:23:29;14.00;;;8.40;;
84616;SDS011;74846;51.126;16.944;2024-03-23T05:25:57;11.10;;;6.80;;
84616;SDS011;74846;51.126;16.944;2024-03-23T05:28:25;13.70;;;7.70;;
84616;SDS011;74846;51.126;16.944;2024-03-23T05:30:55;12.10;;;7.60;;
84616;SDS011;74846;51.126;16.944;2024-03-23T05:33:24;11.20;;;7.70;;
84616;SDS011;74846;51.126;16.944;2024-03-23T05:35:58;11.30;;;7.10;;
84616;SDS011;74846;51.126;16.944;2024-03-23T05:38:28;13.20;;;8.50;;
84616;SDS011;74846;51.126;16.944;2024-03-23T05:40:56;12.60;;;8.40;;
84616;SDS011;74846;51.126;16.944;2024-03-23T05:43:25;12.90;;;9.10;;
84616;SDS011;74846;51.126;16.944;2024-03-23T05:45:56;13.40;;;9.70;;
84616;SDS011;74846;51.126;16.944;2024-03-23T05:48:28;15.10;;;10.30;;
84616;SDS011;74846;51.126;16.944;2024-03-23T05:50:58;12.70;;;8.80;;
84616;SDS011;74846;51.126;16.944;2024-03-23T05:53:25;12.20;;;9.20;;
84616;SDS011;74846;51.126;16.944;2024-03-23T05:56:00;14.00;;;8.40;;
84616;SDS011;74846;51.126;16.944;2024-03-23T05:58:31;12.90;;;9.10;;
84616;SDS011;74846;51.126;16.944;2024-03-23T06:00:59;12.00;;;8.60;;
84616;SDS011;74846;51.126;16.944;2024-03-23T06:03:28;13.60;;;8.80;;
84616;SDS011;74846;51.126;16.944;2024-03-23T06:05:57;13.00;;;9.80;;
84616;SDS011;74846;51.126;16.944;2024-03-23T06:08:24;10.60;;;7.70;;
84616;SDS011;74846;51.126;16.944;2024-03-23T06:10:52;14.70;;;8.80;;
84616;SDS011;74846;51.126;16.944;2024-03-23T06:13:20;17.30;;;9.90;;
84616;SDS011;74846;51.126;16.944;2024-03-23T06:15:52;14.10;;;9.00;;
84616;SDS011;74846;51.126;16.944;2024-03-23T06:18:19;14.50;;;9.10;;
84616;SDS011;74846;51.126;16.944;2024-03-23T06:20:47;14.00;;;9.40;;
84616;SDS011;74846;51.126;16.944;2024-03-23T06:23:17;12.10;;;8.50;;
84616;SDS011;74846;51.126;16.944;2024-03-23T06:25:47;16.80;;;9.10;;
84616;SDS011;74846;51.126;16.944;2024-03-23T06:28:15;11.70;;;8.30;;
84616;SDS011;74846;51.126;16.944;2024-03-23T06:30:42;14.10;;;9.20;;
84616;SDS011;74846;51.126;16.944;2024-03-23T06:33:10;12.40;;;8.00;;
84616;SDS011;74846;51.126;16.944;2024-03-23T06:35:38;15.30;;;8.30;;
84616;SDS011;74846;51.126;16.944;2024-03-23T06:38:05;23.40;;;10.20;;
84616;SDS011;74846;51.126;16.944;2024-03-23T06:40:35;13.20;;;8.00;;
84616;SDS011;74846;51.126;16.944;2024-03-23T06:43:03;10.80;;;7.60;;
84616;SDS011;74846;51.126;16.944;2024-03-23T06:45:31;11.90;;;8.80;;
84616;SDS011;74846;51.126;16.944;2024-03-23T06:47:59;11.60;;;8.20;;
84616;SDS011;74846;51.126;16.944;2024-03-23T06:50:26;14.20;;;10.00;;
84616;SDS011;74846;51.126;16.944;2024-03-23T06:52:55;14.00;;;9.60;;
84616;SDS011;74846;51.126;16.944;2024-03-23T06:55:23;16.10;;;10.80;;
84616;SDS011;74846;51.126;16.944;2024-03-23T06:57:52;15.30;;;9.40;;
84616;SDS011;74846;51.126;16.944;2024-03-23T07:00:20;17.20;;;11.00;;
84616;SDS011;74846;51.126;16.944;2024-03-23T07:02:47;13.70;;;10.70;;
84616;SDS011;74846;51.126;16.944;2024-03-23T07:05:15;8.80;;;6.60;;
84616;SDS011;74846;51.126;16.944;2024-03-23T07:07:42;14.00;;;9.10;;
84616;SDS011;74846;51.126;16.944;2024-03-23T07:10:10;9.70;;;6.80;;
84616;SDS011;74846;51.126;16.944;2024-03-23T07:12:38;10.80;;;7.00;;
84616;SDS011;74846;51.126;16.944;2024-03-23T07:15:06;12.00;;;7.20;;
84616;SDS011;74846;51.126;16.944;2024-03-23T07:17:35;14.40;;;7.90;;
84616;SDS011;74846;51.126;16.944;2024-03-23T07:20:03;10.90;;;7.90;;
84616;SDS011;74846;51.126;16.944;2024-03-23T07:22:31;8.90;;;6.30;;
84616;SDS011;74846;51.126;16.944;2024-03-23T07:25:00;7.20;;;4.70;;
84616;SDS011;74846;51.126;16.944;2024-03-23T07:27:28;7.70;;;5.00;;
84616;SDS011;74846;51.126;16.944;2024-03-23T07:29:56;8.20;;;6.30;;
84616;SDS011;74846;51.126;16.944;2024-03-23T07:32:24;7.90;;;6.50;;
84616;SDS011;74846;51.126;16.944;2024-03-23T07:34:54;5.10;;;4.00;;
84616;SDS011;74846;51.126;16.944;2024-03-23T07:37:21;4.00;;;2.80;;
84616;SDS011;74846;51.126;16.944;2024-03-23T07:39:51;9.00;;;5.20;;
84616;SDS011;74846;51.126;16.944;2024-03-23T07:42:19;8.80;;;5.90;;
84616;SDS011;74846;51.126;16.944;2024-03-23T07:44:47;6.00;;;4.60;;
84616;SDS011;74846;51.126;16.944;2024-03-23T07:47:14;8.30;;;5.40;;
84616;SDS011;74846;51.126;16.944;2024-03-23T07:49:42;8.30;;;5.70;;
84616;SDS011;74846;51.126;16.944;2024-03-23T07:52:10;8.20;;;5.30;;
84616;SDS011;74846;51.126;16.944;2024-03-23T07:54:37;10.60;;;7.90;;
84616;SDS011;74846;51.126;16.944;2024-03-23T07:57:05;6.30;;;4.20;;
84616;SDS011;74846;51.126;16.944;2024-03-23T07:59:33;9.50;;;6.90;;
84616;SDS011;74846;51.126;16.944;2024-03-23T08:02:01;9.80;;;7.20;;
84616;SDS011;74846;51.126;16.944;2024-03-23T08:04:29;9.10;;;6.50;;
84616;SDS011;74846;51.126;16.944;2024-03-23T08:06:57;11.00;;;7.30;;
84616;SDS011;74846;51.126;16.944;2024-03-23T08:09:24;9.90;;;6.80;;
84616;SDS011;74846;51.126;16.944;2024-03-23T08:11:52;10.10;;;6.70;;
84616;SDS011;74846;51.126;16.944;2024-03-23T08:14:20;11.60;;;8.30;;
84616;SDS011;74846;51.126;16.944;2024-03-23T08:16:47;9.90;;;6.30;;
84616;SDS011;74846;51.126;16.944;2024-03-23T08:19:15;10.10;;;6.60;;
84616;SDS011;74846;51.126;16.944;2024-03-23T08:21:43;10.20;;;4.70;;
84616;SDS011;74846;51.126;16.944;2024-03-23T08:24:13;11.90;;;7.00;;
84616;SDS011;74846;51.126;16.944;2024-03-23T08:26:41;12.90;;;6.70;;
84616;SDS011;74846;51.126;16.944;2024-03-23T08:29:08;9.20;;;6.90;;
84616;SDS011;74846;51.126;16.944;2024-03-23T08:31:36;9.10;;;5.50;;
84616;SDS011;74846;51.126;16.944;2024-03-23T08:34:03;6.90;;;5.40;;
84616;SDS011;74846;51.126;16.944;2024-03-23T08:36:31;7.90;;;5.50;;
84616;SDS011;74846;51.126;16.944;2024-03-23T08:38:59;9.50;;;6.90;;
84616;SDS011;74846;51.126;16.944;2024-03-23T08:41:30;9.30;;;6.70;;
84616;SDS011;74846;51.126;16.944;2024-03-23T08:43:58;8.40;;;6.50;;
84616;SDS011;74846;51.126;16.944;2024-03-23T08:46:25;6.40;;;4.90;;
84616;SDS011;74846;51.126;16.944;2024-03-23T08:48:53;5.40;;;3.90;;
84616;SDS011;74846;51.126;16.944;2024-03-23T08:51:20;10.40;;;6.10;;
84616;SDS011;74846;51.126;16.944;2024-03-23T08:53:48;7.80;;;5.60;;
84616;SDS011;74846;51.126;16.944;2024-03-23T08:56:16;4.80;;;3.50;;
84616;SDS011;74846;51.126;16.944;2024-03-23T08:58:44;7.40;;;5.30;;
84616;SDS011;74846;51.126;16.944;2024-03-23T09:01:12;7.80;;;6.30;;
84616;SDS011;74846;51.126;16.944;2024-03-23T09:03:41;6.10;;;4.60;;
84616;SDS011;74846;51.126;16.944;2024-03-23T09:06:10;7.40;;;4.70;;
84616;SDS011;74846;51.126;16.944;2024-03-23T09:08:39;7.80;;;5.60;;
84616;SDS011;74846;51.126;16.944;2024-03-23T09:11:09;7.60;;;6.10;;
84616;SDS011;74846;51.126;16.944;2024-03-23T09:13:39;7.70;;;5.10;;
84616;SDS011;74846;51.126;16.944;2024-03-23T09:16:08;7.70;;;5.60;;
84616;SDS011;74846;51.126;16.944;2024-03-23T09:18:39;7.10;;;5.70;;
84616;SDS011;74846;51.126;16.944;2024-03-23T09:21:14;9.80;;;6.50;;
84616;SDS011;74846;51.126;16.944;2024-03-23T09:23:45;7.70;;;5.80;;
84616;SDS011;74846;51.126;16.944;2024-03-23T09:28:41;8.80;;;6.00;;
84616;SDS011;74846;51.126;16.944;2024-03-23T09:31:09;8.20;;;6.00;;
84616;SDS011;74846;51.126;16.944;2024-03-23T09:33:41;8.00;;;5.80;;
84616;SDS011;74846;51.126;16.944;2024-03-23T09:36:10;7.30;;;5.70;;
84616;SDS011;74846;51.126;16.944;2024-03-23T09:38:37;8.40;;;6.60;;
84616;SDS011;74846;51.126;16.944;2024-03-23T09:41:08;7.50;;;5.10;;
84616;SDS011;74846;51.126;16.944;2024-03-23T09:43:36;5.70;;;4.40;;
84616;SDS011;74846;51.126;16.944;2024-03-23T09:46:06;7.50;;;5.30;;
84616;SDS011;74846;51.126;16.944;2024-03-23T09:48:35;10.60;;;6.60;;
84616;SDS011;74846;51.126;16.944;2024-03-23T09:51:03;6.60;;;5.10;;
84616;SDS011;74846;51.126;16.944;2024-03-23T09:53:31;7.50;;;5.30;;
84616;SDS011;74846;51.126;16.944;2024-03-23T09:55:59;6.70;;;5.00;;
84616;SDS011;74846;51.126;16.944;2024-03-23T09:58:28;8.40;;;5.40;;
84616;SDS011;74846;51.126;16.944;2024-03-23T10:00:55;8.40;;;4.90;;
84616;SDS011;74846;51.126;16.944;2024-03-23T10:03:23;8.80;;;5.30;;
84616;SDS011;74846;51.126;16.944;2024-03-23T10:06:03;8.00;;;4.50;;
84616;SDS011;74846;51.126;16.944;2024-03-23T10:08:33;9.30;;;4.80;;
84616;SDS011;74846;51.126;16.944;2024-03-23T10:11:12;6.00;;;3.90;;
84616;SDS011;74846;51.126;16.944;2024-03-23T10:13:43;5.80;;;5.10;;
84616;SDS011;74846;51.126;16.944;2024-03-23T10:16:11;8.50;;;5.40;;
84616;SDS011;74846;51.126;16.944;2024-03-23T10:18:39;6.90;;;4.40;;
84616;SDS011;74846;51.126;16.944;2024-03-23T10:21:10;7.60;;;5.60;;
84616;SDS011;74846;51.126;16.944;2024-03-23T10:23:39;7.30;;;5.40;;
84616;SDS011;74846;51.126;16.944;2024-03-23T10:26:21;7.60;;;5.20;;
84616;SDS011;74846;51.126;16.944;2024-03-23T10:31:35;5.90;;;4.50;;
84616;SDS011;74846;51.126;16.944;2024-03-23T10:34:03;5.90;;;5.00;;
84616;SDS011;74846;51.126;16.944;2024-03-23T10:36:31;6.60;;;4.70;;
84616;SDS011;74846;51.126;16.944;2024-03-23T10:39:01;7.60;;;5.70;;
84616;SDS011;74846;51.126;16.944;2024-03-23T10:41:32;8.30;;;6.10;;
84616;SDS011;74846;51.126;16.944;2024-03-23T10:44:00;6.20;;;4.00;;
84616;SDS011;74846;51.126;16.944;2024-03-23T10:46:29;6.40;;;5.10;;
84616;SDS011;74846;51.126;16.944;2024-03-23T10:48:58;7.00;;;5.00;;
84616;SDS011;74846;51.126;16.944;2024-03-23T10:51:26;6.90;;;5.00;;
84616;SDS011;74846;51.126;16.944;2024-03-23T10:53:54;6.70;;;4.70;;
84616;SDS011;74846;51.126;16.944;2024-03-23T10:56:24;7.50;;;5.50;;
84616;SDS011;74846;51.126;16.944;2024-03-23T10:58:56;5.90;;;5.30;;
84616;SDS011;74846;51.126;16.944;2024-03-23T11:01:25;5.90;;;4.70;;
84616;SDS011;74846;51.126;16.944;2024-03-23T11:03:52;7.50;;;4.60;;
84616;SDS011;74846;51.126;16.944;2024-03-23T11:06:33;6.00;;;4.80;;
84616;SDS011;74846;51.126;16.944;2024-03-23T11:09:02;6.40;;;5.30;;
84616;SDS011;74846;51.126;16.944;2024-03-23T11:11:31;6.80;;;4.90;;
84616;SDS011;74846;51.126;16.944;2024-03-23T11:14:00;6.00;;;4.60;;
84616;SDS011;74846;51.126;16.944;2024-03-23T11:16:53;6.70;;;5.20;;
84616;SDS011;74846;51.126;16.944;2024-03-23T11:19:36;6.80;;;5.10;;
84616;SDS011;74846;51.126;16.944;2024-03-23T11:22:05;7.20;;;5.10;;
84616;SDS011;74846;51.126;16.944;2024-03-23T11:24:33;6.50;;;5.10;;
84616;SDS011;74846;51.126;16.944;2024-03-23T11:27:01;6.80;;;5.30;;
84616;SDS011;74846;51.126;16.944;2024-03-23T11:29:31;6.20;;;4.50;;
84616;SDS011;74846;51.126;16.944;2024-03-23T11:31:58;4.40;;;3.10;;
84616;SDS011;74846;51.126;16.944;2024-03-23T11:34:29;5.20;;;4.20;;
84616;SDS011;74846;51.126;16.944;2024-03-23T11:37:04;5.40;;;4.00;;
84616;SDS011;74846;51.126;16.944;2024-03-23T11:39:32;4.80;;;3.30;;
84616;SDS011;74846;51.126;16.944;2024-03-23T11:42:00;5.30;;;3.40;;
84616;SDS011;74846;51.126;16.944;2024-03-23T11:44:27;3.60;;;2.60;;
84616;SDS011;74846;51.126;16.944;2024-03-23T11:47:05;6.30;;;3.80;;
84616;SDS011;74846;51.126;16.944;2024-03-23T11:49:35;5.30;;;3.30;;
84616;SDS011;74846;51.126;16.944;2024-03-23T11:52:08;4.30;;;2.90;;
84616;SDS011;74846;51.126;16.944;2024-03-23T11:54:38;3.40;;;2.60;;
84616;SDS011;74846;51.126;16.944;2024-03-23T11:57:08;4.60;;;3.00;;
84616;SDS011;74846;51.126;16.944;2024-03-23T11:59:39;4.10;;;3.30;;
84616;SDS011;74846;51.126;16.944;2024-03-23T12:02:12;6.30;;;2.70;;
84616;SDS011;74846;51.126;16.944;2024-03-23T12:04:43;8.50;;;4.50;;
84616;SDS011;74846;51.126;16.944;2024-03-23T12:07:14;5.40;;;3.70;;
84616;SDS011;74846;51.126;16.944;2024-03-23T12:09:47;6.00;;;3.50;;
84616;SDS011;74846;51.126;16.944;2024-03-23T12:12:31;3.80;;;2.60;;
84616;SDS011;74846;51.126;16.944;2024-03-23T12:15:03;4.00;;;3.30;;
84616;SDS011;74846;51.126;16.944;2024-03-23T12:17:32;4.50;;;3.40;;
84616;SDS011;74846;51.126;16.944;2024-03-23T12:20:00;4.70;;;2.80;;
84616;SDS011;74846;51.126;16.944;2024-03-23T12:22:29;5.70;;;3.40;;
84616;SDS011;74846;51.126;16.944;2024-03-23T12:24:57;4.60;;;3.60;;
84616;SDS011;74846;51.126;16.944;2024-03-23T12:27:24;4.40;;;3.40;;
84616;SDS011;74846;51.126;16.944;2024-03-23T12:29:52;3.10;;;2.60;;
84616;SDS011;74846;51.126;16.944;2024-03-23T12:32:20;4.50;;;3.50;;
84616;SDS011;74846;51.126;16.944;2024-03-23T12:34:47;4.80;;;3.30;;
84616;SDS011;74846;51.126;16.944;2024-03-23T12:37:15;3.40;;;3.00;;
84616;SDS011;74846;51.126;16.944;2024-03-23T12:39:47;4.30;;;3.40;;
84616;SDS011;74846;51.126;16.944;2024-03-23T12:42:14;4.40;;;3.30;;
84616;SDS011;74846;51.126;16.944;2024-03-23T12:44:42;4.50;;;2.90;;
84616;SDS011;74846;51.126;16.944;2024-03-23T12:47:10;4.40;;;3.40;;
84616;SDS011;74846;51.126;16.944;2024-03-23T12:49:38;5.30;;;3.10;;
84616;SDS011;74846;51.126;16.944;2024-03-23T12:52:06;4.60;;;3.10;;
84616;SDS011;74846;51.126;16.944;2024-03-23T12:54:35;4.40;;;3.10;;
84616;SDS011;74846;51.126;16.944;2024-03-23T12:57:03;5.80;;;3.10;;
84616;SDS011;74846;51.126;16.944;2024-03-23T12:59:30;5.30;;;2.80;;
84616;SDS011;74846;51.126;16.944;2024-03-23T13:01:59;7.20;;;4.60;;
84616;SDS011;74846;51.126;16.944;2024-03-23T13:04:27;5.30;;;3.40;;
84616;SDS011;74846;51.126;16.944;2024-03-23T13:06:54;3.40;;;2.50;;
84616;SDS011;74846;51.126;16.944;2024-03-23T13:09:22;3.70;;;2.80;;
84616;SDS011;74846;51.126;16.944;2024-03-23T13:14:21;4.20;;;3.40;;
84616;SDS011;74846;51.126;16.944;2024-03-23T13:16:49;4.30;;;3.30;;
84616;SDS011;74846;51.126;16.944;2024-03-23T13:19:18;4.70;;;3.80;;
84616;SDS011;74846;51.126;16.944;2024-03-23T13:21:47;4.40;;;2.70;;
84616;SDS011;74846;51.126;16.944;2024-03-23T13:24:15;4.00;;;3.20;;
84616;SDS011;74846;51.126;16.944;2024-03-23T13:26:42;4.60;;;2.80;;
84616;SDS011;74846;51.126;16.944;2024-03-23T13:29:10;6.30;;;3.70;;
84616;SDS011;74846;51.126;16.944;2024-03-23T13:31:38;4.00;;;2.80;;
84616;SDS011;74846;51.126;16.944;2024-03-23T13:34:06;5.00;;;3.50;;
84616;SDS011;74846;51.126;16.944;2024-03-23T13:36:34;5.40;;;3.60;;
84616;SDS011;74846;51.126;16.944;2024-03-23T13:39:03;3.60;;;2.80;;
84616;SDS011;74846;51.126;16.944;2024-03-23T13:44:07;2.90;;;1.90;;
84616;SDS011;74846;51.126;16.944;2024-03-23T13:46:36;5.00;;;3.10;;
84616;SDS011;74846;51.126;16.944;2024-03-23T13:49:04;6.20;;;3.00;;
84616;SDS011;74846;51.126;16.944;2024-03-23T13:51:33;3.50;;;2.40;;
84616;SDS011;74846;51.126;16.944;2024-03-23T13:54:01;5.40;;;3.50;;
84616;SDS011;74846;51.126;16.944;2024-03-23T13:56:28;4.60;;;2.80;;
84616;SDS011;74846;51.126;16.944;2024-03-23T13:58:56;2.70;;;1.90;;
84616;SDS011;74846;51.126;16.944;2024-03-23T14:01:25;2.40;;;1.40;;
84616;SDS011;74846;51.126;16.944;2024-03-23T14:03:53;1.70;;;1.10;;
84616;SDS011;74846;51.126;16.944;2024-03-23T14:06:20;2.20;;;1.40;;
84616;SDS011;74846;51.126;16.944;2024-03-23T14:08:49;2.50;;;1.50;;
84616;SDS011;74846;51.126;16.944;2024-03-23T14:11:17;1.20;;;1.10;;
84616;SDS011;74846;51.126;16.944;2024-03-23T14:13:46;1.90;;;1.20;;
84616;SDS011;74846;51.126;16.944;2024-03-23T14:16:14;1.10;;;0.80;;
84616;SDS011;74846;51.126;16.944;2024-03-23T14:18:41;1.80;;;1.20;;
84616;SDS011;74846;51.126;16.944;2024-03-23T14:21:09;2.30;;;1.10;;
84616;SDS011;74846;51.126;16.944;2024-03-23T14:23:38;1.80;;;0.60;;
84616;SDS011;74846;51.126;16.944;2024-03-23T14:26:05;0.90;;;0.60;;
84616;SDS011;74846;51.126;16.944;2024-03-23T14:28:34;2.10;;;1.10;;
84616;SDS011;74846;51.126;16.944;2024-03-23T14:31:02;2.00;;;0.50;;
84616;SDS011;74846;51.126;16.944;2024-03-23T14:33:30;1.40;;;1.10;;
84616;SDS011;74846;51.126;16.944;2024-03-23T14:36:01;0.90;;;0.80;;
84616;SDS011;74846;51.126;16.944;2024-03-23T14:38:32;1.30;;;1.00;;
84616;SDS011;74846;51.126;16.944;2024-03-23T14:41:00;1.10;;;0.70;;
84616;SDS011;74846;51.126;16.944;2024-03-23T14:43:29;0.70;;;0.70;;
84616;SDS011;74846;51.126;16.944;2024-03-23T14:46:10;1.30;;;0.80;;
84616;SDS011;74846;51.126;16.944;2024-03-23T14:48:43;0.50;;;0.40;;
84616;SDS011;74846;51.126;16.944;2024-03-23T14:51:12;1.20;;;0.50;;
84616;SDS011;74846;51.126;16.944;2024-03-23T14:53:40;1.60;;;0.80;;
84616;SDS011;74846;51.126;16.944;2024-03-23T14:56:12;2.00;;;0.60;;
84616;SDS011;74846;51.126;16.944;2024-03-23T14:58:42;1.60;;;0.80;;
84616;SDS011;74846;51.126;16.944;2024-03-23T15:01:10;0.90;;;0.80;;
84616;SDS011;74846;51.126;16.944;2024-03-23T15:03:38;1.10;;;0.70;;
84616;SDS011;74846;51.126;16.944;2024-03-23T15:06:10;2.40;;;1.50;;
84616;SDS011;74846;51.126;16.944;2024-03-23T15:08:38;1.80;;;1.40;;
84616;SDS011;74846;51.126;16.944;2024-03-23T15:11:07;2.20;;;1.40;;
84616;SDS011;74846;51.126;16.944;2024-03-23T15:13:35;2.80;;;1.40;;
84616;SDS011;74846;51.126;16.944;2024-03-23T15:16:04;2.80;;;1.30;;
84616;SDS011;74846;51.126;16.944;2024-03-23T15:18:33;1.70;;;1.30;;
84616;SDS011;74846;51.126;16.944;2024-03-23T15:21:03;2.30;;;1.50;;
84616;SDS011;74846;51.126;16.944;2024-03-23T15:23:35;3.90;;;1.50;;
84616;SDS011;74846;51.126;16.944;2024-03-23T15:26:03;1.40;;;1.20;;
84616;SDS011;74846;51.126;16.944;2024-03-23T15:28:33;1.60;;;1.10;;
84616;SDS011;74846;51.126;16.944;2024-03-23T15:31:28;1.20;;;1.00;;
84616;SDS011;74846;51.126;16.944;2024-03-23T15:33:57;1.00;;;0.70;;
84616;SDS011;74846;51.126;16.944;2024-03-23T15:36:24;2.00;;;1.20;;
84616;SDS011;74846;51.126;16.944;2024-03-23T15:38:52;2.20;;;1.30;;
84616;SDS011;74846;51.126;16.944;2024-03-23T15:41:22;1.90;;;1.40;;
84616;SDS011;74846;51.126;16.944;2024-03-23T15:43:53;1.80;;;1.30;;